createdAt,value
2023-06-17T00:00:45.743Z,76.63
2023-06-17T00:01:49.438Z,75.73
2023-06-17T00:02:52.878Z,75.71
2023-06-17T00:03:56.479Z,74.65
2023-06-17T00:04:58.856Z,74.03
2023-06-17T00:06:02.274Z,73.61
2023-06-17T00:07:05.083Z,73.51
2023-06-17T00:08:08.664Z,73.85
2023-06-17T00:09:11.332Z,73.72
2023-06-17T00:10:14.961Z,74.01
2023-06-17T00:11:17.570Z,75.42
2023-06-17T00:12:22.804Z,75.53
2023-06-17T00:13:25.948Z,74.90
2023-06-17T00:14:29.578Z,75.13
2023-06-17T00:15:34.399Z,75.54
2023-06-17T00:16:38.258Z,75.26
2023-06-17T00:17:46.007Z,75.28
2023-06-17T00:18:53.166Z,75.79
2023-06-17T00:19:58.061Z,76.44
2023-06-17T00:21:01.498Z,77.04
2023-06-17T00:22:09.805Z,77.72
2023-06-17T00:23:13.763Z,77.22
2023-06-17T00:24:16.657Z,76.65
2023-06-17T00:25:21.559Z,76.45
2023-06-17T00:26:25.056Z,76.52
2023-06-17T00:27:31.816Z,76.95
2023-06-17T00:28:34.225Z,76.76
2023-06-17T00:29:37.830Z,76.72
2023-06-17T00:30:40.235Z,75.37
2023-06-17T00:31:43.885Z,75.92
2023-06-17T00:32:46.468Z,76.93
2023-06-17T00:33:50.002Z,77.11
2023-06-17T00:34:52.405Z,77.56
2023-06-17T00:35:56.133Z,77.28
2023-06-17T00:36:58.641Z,77.23
2023-06-17T00:38:02.254Z,77.74
2023-06-17T00:39:05.099Z,78.11
2023-06-17T00:40:10.989Z,78.35
2023-06-17T00:41:13.491Z,79.13
2023-06-17T00:42:17.545Z,79.38
2023-06-17T00:43:21.652Z,79.03
2023-06-17T00:44:25.337Z,79.50
2023-06-17T00:45:28.081Z,79.72
2023-06-17T00:46:41.526Z,79.84
2023-06-17T00:47:44.047Z,79.92
2023-06-17T00:48:47.832Z,80.46
2023-06-17T00:49:54.724Z,80.45
2023-06-17T00:51:03.230Z,80.50
2023-06-17T00:52:23.845Z,80.42
2023-06-17T00:53:33.810Z,81.47
2023-06-17T00:54:38.567Z,81.64
2023-06-17T00:55:42.127Z,81.17
2023-06-17T00:56:45.657Z,81.69
2023-06-17T00:57:49.380Z,81.87
2023-06-17T00:58:55.340Z,81.72
2023-06-17T00:59:59.011Z,81.47
2023-06-17T01:01:01.381Z,81.39
2023-06-17T01:02:05.284Z,81.90
2023-06-17T01:03:15.412Z,81.84
2023-06-17T01:04:18.653Z,81.78
2023-06-17T01:05:22.340Z,81.78
2023-06-17T01:06:30.814Z,81.89
2023-06-17T01:07:42.487Z,82.05
2023-06-17T01:08:51.042Z,82.56
2023-06-17T01:09:59.384Z,82.24
2023-06-17T01:11:06.554Z,81.90
2023-06-17T01:12:11.768Z,81.49
2023-06-17T01:13:17.510Z,81.66
2023-06-17T01:14:23.234Z,80.99
2023-06-17T01:15:26.977Z,80.44
2023-06-17T01:16:33.450Z,80.75
2023-06-17T01:17:37.213Z,80.24
2023-06-17T01:18:43.628Z,80.95
2023-06-17T01:19:50.175Z,80.72
2023-06-17T01:20:55.286Z,80.38
2023-06-17T01:21:58.773Z,79.35
2023-06-17T01:23:04.138Z,78.35
2023-06-17T01:24:09.057Z,78.72
2023-06-17T01:25:15.374Z,78.96
2023-06-17T01:26:21.114Z,78.68
2023-06-17T01:27:27.384Z,79.52
2023-06-17T01:28:32.185Z,78.93
2023-06-17T01:29:39.112Z,79.05
2023-06-17T01:30:42.845Z,79.51
2023-06-17T01:31:49.936Z,78.37
2023-06-17T01:32:52.777Z,78.22
2023-06-17T01:34:02.717Z,76.26
2023-06-17T01:35:08.946Z,76.92
2023-06-17T01:36:17.776Z,76.14
2023-06-17T01:37:27.266Z,75.86
2023-06-17T01:38:37.477Z,77.42
2023-06-17T01:39:44.290Z,77.62
2023-06-17T01:40:54.410Z,77.48
2023-06-17T01:42:02.709Z,76.50
2023-06-17T01:43:08.981Z,76.17
2023-06-17T01:44:13.815Z,76.41
2023-06-17T01:45:18.393Z,76.32
2023-06-17T01:46:22.144Z,76.29
2023-06-17T01:47:26.232Z,76.60
2023-06-17T01:48:29.043Z,76.87
2023-06-17T01:49:33.201Z,77.41
2023-06-17T01:50:35.909Z,76.97
2023-06-17T01:51:39.729Z,77.24
2023-06-17T01:52:42.598Z,77.25
2023-06-17T01:53:46.261Z,76.78
2023-06-17T01:54:49.306Z,76.75
2023-06-17T01:55:55.830Z,76.60
2023-06-17T01:56:58.499Z,77.49
2023-06-17T01:58:02.415Z,76.79
2023-06-17T01:59:05.071Z,77.01
2023-06-17T02:00:10.282Z,77.69
2023-06-17T02:01:13.154Z,77.89
2023-06-17T02:02:16.852Z,76.92
2023-06-17T02:03:19.607Z,77.85
2023-06-17T02:04:23.302Z,78.94
2023-06-17T02:05:25.875Z,77.92
2023-06-17T02:06:29.780Z,77.82
2023-06-17T02:07:32.555Z,78.64
2023-06-17T02:08:36.635Z,79.44
2023-06-17T02:09:39.209Z,79.35
2023-06-17T02:10:42.956Z,79.85
2023-06-17T02:11:47.149Z,80.26
2023-06-17T02:12:51.035Z,80.39
2023-06-17T02:13:53.878Z,80.56
2023-06-17T02:14:57.891Z,80.48
2023-06-17T02:16:00.742Z,80.57
2023-06-17T02:17:05.397Z,80.53
2023-06-17T02:18:08.423Z,80.72
2023-06-17T02:19:13.752Z,80.33
2023-06-17T02:20:16.389Z,79.97
2023-06-17T02:21:20.382Z,79.68
2023-06-17T02:22:24.135Z,79.72
2023-06-17T02:23:29.628Z,79.76
2023-06-17T02:24:32.535Z,78.53
2023-06-17T02:25:38.152Z,78.55
2023-06-17T02:26:42.173Z,77.94
2023-06-17T02:27:47.150Z,77.58
2023-06-17T02:28:49.949Z,76.86
2023-06-17T02:29:53.864Z,76.99
2023-06-17T02:30:56.725Z,76.00
2023-06-17T02:32:00.491Z,76.61
2023-06-17T02:33:03.315Z,75.42
2023-06-17T02:34:07.048Z,75.67
2023-06-17T02:35:11.698Z,74.64
2023-06-17T02:36:15.992Z,74.80
2023-06-17T02:37:19.978Z,75.41
2023-06-17T02:38:26.025Z,75.30
2023-06-17T02:39:28.492Z,74.34
2023-06-17T02:40:32.487Z,75.95
2023-06-17T02:41:35.067Z,75.52
2023-06-17T02:42:39.728Z,74.33
2023-06-17T02:43:43.961Z,74.45
2023-06-17T02:44:47.703Z,74.70
2023-06-17T02:45:51.144Z,73.23
2023-06-17T02:46:54.257Z,73.56
2023-06-17T02:47:57.892Z,74.20
2023-06-17T02:49:00.485Z,72.64
2023-06-17T02:50:04.887Z,73.53
2023-06-17T02:51:09.167Z,72.88
2023-06-17T02:52:14.644Z,74.59
2023-06-17T02:53:17.651Z,72.66
2023-06-17T02:54:21.728Z,73.37
2023-06-17T02:55:28.195Z,73.34
2023-06-17T02:56:31.883Z,73.75
2023-06-17T02:57:34.553Z,73.95
2023-06-17T02:58:38.338Z,72.83
2023-06-17T02:59:43.065Z,74.05
2023-06-17T03:00:47.485Z,72.83
2023-06-17T03:01:50.310Z,72.10
2023-06-17T03:02:54.535Z,71.77
2023-06-17T03:03:57.709Z,72.57
2023-06-17T03:05:01.473Z,71.57
2023-06-17T03:06:06.352Z,70.95
2023-06-17T03:07:09.853Z,73.63
2023-06-17T03:08:12.368Z,73.68
2023-06-17T03:09:15.879Z,72.49
2023-06-17T03:10:19.878Z,73.09
2023-06-17T03:11:23.953Z,71.99
2023-06-17T03:12:26.456Z,73.91
2023-06-17T03:13:30.811Z,72.92
2023-06-17T03:14:33.814Z,72.80
2023-06-17T03:15:40.585Z,73.15
2023-06-17T03:16:45.946Z,73.18
2023-06-17T03:17:49.985Z,73.17
2023-06-17T03:18:53.123Z,73.72
2023-06-17T03:19:58.184Z,73.71
2023-06-17T03:21:01.677Z,73.40
2023-06-17T03:22:05.962Z,73.61
2023-06-17T03:23:08.787Z,72.13
2023-06-17T03:24:12.789Z,73.47
2023-06-17T03:25:15.855Z,72.78
2023-06-17T03:26:19.621Z,72.57
2023-06-17T03:27:22.377Z,71.83
2023-06-17T03:28:25.998Z,70.94
2023-06-17T03:29:29.004Z,71.51
2023-06-17T03:30:33.398Z,72.19
2023-06-17T03:31:38.199Z,71.64
2023-06-17T03:32:46.211Z,71.66
2023-06-17T03:33:51.464Z,72.67
2023-06-17T03:34:55.327Z,71.12
2023-06-17T03:35:58.439Z,72.32
2023-06-17T03:37:02.079Z,71.79
2023-06-17T03:38:04.504Z,71.17
2023-06-17T03:39:08.548Z,71.07
2023-06-17T03:40:11.833Z,71.63
2023-06-17T03:41:15.940Z,72.95
2023-06-17T03:42:18.769Z,71.00
2023-06-17T03:43:24.695Z,69.72
2023-06-17T03:44:27.427Z,68.57
2023-06-17T03:45:32.255Z,69.70
2023-06-17T03:46:36.393Z,68.87
2023-06-17T03:47:40.675Z,69.49
2023-06-17T03:48:43.208Z,69.05
2023-06-17T03:49:49.380Z,67.83
2023-06-17T03:50:52.036Z,68.74
2023-06-17T03:51:58.645Z,69.21
2023-06-17T03:53:01.305Z,69.81
2023-06-17T03:54:05.236Z,70.48
2023-06-17T03:55:09.188Z,70.59
2023-06-17T03:56:12.849Z,69.25
2023-06-17T03:57:15.470Z,70.67
2023-06-17T03:58:20.095Z,68.93
2023-06-17T03:59:23.461Z,69.31
2023-06-17T04:00:28.139Z,68.44
2023-06-17T04:01:31.841Z,68.62
2023-06-17T04:02:37.054Z,68.89
2023-06-17T04:03:39.921Z,69.79
2023-06-17T04:04:45.445Z,68.43
2023-06-17T04:05:48.418Z,68.35
2023-06-17T04:06:52.039Z,68.62
2023-06-17T04:07:55.069Z,68.86
2023-06-17T04:08:58.917Z,69.13
2023-06-17T04:10:06.508Z,70.23
2023-06-17T04:11:14.294Z,70.12
2023-06-17T04:12:17.417Z,69.26
2023-06-17T04:13:21.418Z,69.47
2023-06-17T04:14:24.228Z,69.14
2023-06-17T04:15:28.277Z,68.23
2023-06-17T04:16:32.066Z,68.74
2023-06-17T04:17:38.057Z,69.39
2023-06-17T04:18:41.806Z,67.39
2023-06-17T04:19:45.527Z,66.47
2023-06-17T04:20:50.832Z,67.60
2023-06-17T04:21:53.411Z,66.94
2023-06-17T04:22:56.856Z,67.32
2023-06-17T04:23:59.652Z,67.63
2023-06-17T04:25:03.256Z,67.55
2023-06-17T04:26:06.370Z,67.77
2023-06-17T04:27:11.662Z,67.12
2023-06-17T04:28:14.631Z,66.82
2023-06-17T04:29:18.802Z,67.60
2023-06-17T04:30:21.751Z,67.96
2023-06-17T04:31:26.587Z,67.12
2023-06-17T04:32:29.882Z,66.74
2023-06-17T04:33:39.382Z,66.99
2023-06-17T04:34:43.972Z,66.39
2023-06-17T04:35:48.559Z,67.31
2023-06-17T04:36:58.112Z,67.89
2023-06-17T04:38:04.162Z,68.17
2023-06-17T04:39:07.366Z,67.49
2023-06-17T04:40:13.542Z,66.89
2023-06-17T04:41:18.526Z,67.04
2023-06-17T04:42:22.204Z,66.70
2023-06-17T04:43:25.458Z,68.41
2023-06-17T04:44:32.797Z,66.57
2023-06-17T04:45:36.563Z,67.57
2023-06-17T04:46:40.272Z,66.84
2023-06-17T04:47:43.625Z,68.39
2023-06-17T04:48:48.853Z,68.08
2023-06-17T04:49:53.071Z,68.63
2023-06-17T04:50:57.488Z,67.81
2023-06-17T04:52:00.111Z,68.95
2023-06-17T04:53:05.357Z,67.13
2023-06-17T04:54:09.134Z,66.58
2023-06-17T04:55:15.704Z,66.75
2023-06-17T04:56:21.202Z,66.85
2023-06-17T04:57:25.380Z,66.07
2023-06-17T04:58:28.034Z,67.42
2023-06-17T04:59:31.751Z,67.15
2023-06-17T05:00:34.397Z,67.59
2023-06-17T05:01:38.112Z,68.76
2023-06-17T05:02:41.895Z,68.82
2023-06-17T05:03:46.098Z,69.44
2023-06-17T05:04:50.133Z,70.72
2023-06-17T05:05:55.548Z,70.92
2023-06-17T05:06:58.725Z,70.46
2023-06-17T05:08:02.214Z,70.21
2023-06-17T05:09:05.370Z,71.37
2023-06-17T05:10:10.246Z,72.15
2023-06-17T05:11:12.908Z,71.94
2023-06-17T05:12:16.463Z,72.64
2023-06-17T05:13:20.312Z,71.86
2023-06-17T05:14:23.181Z,71.45
2023-06-17T05:15:27.264Z,71.60
2023-06-17T05:16:30.244Z,70.83
2023-06-17T05:17:34.029Z,71.12
2023-06-17T05:18:36.803Z,69.36
2023-06-17T05:19:41.054Z,69.79
2023-06-17T05:20:45.244Z,70.65
2023-06-17T05:21:49.933Z,68.62
2023-06-17T05:22:56.151Z,70.07
2023-06-17T05:24:01.330Z,69.25
2023-06-17T05:25:06.916Z,69.50
2023-06-17T05:26:10.281Z,68.85
2023-06-17T05:27:12.787Z,69.17
2023-06-17T05:28:16.452Z,68.32
2023-06-17T05:29:19.440Z,68.72
2023-06-17T05:30:23.778Z,68.09
2023-06-17T05:31:26.312Z,68.31
2023-06-17T05:32:29.938Z,67.76
2023-06-17T05:33:32.405Z,68.17
2023-06-17T05:34:36.418Z,67.75
2023-06-17T05:35:39.039Z,68.21
2023-06-17T05:36:44.153Z,67.42
2023-06-17T05:37:46.655Z,68.35
2023-06-17T05:38:50.847Z,67.50
2023-06-17T05:39:53.394Z,68.29
2023-06-17T05:40:57.515Z,67.32
2023-06-17T05:42:00.093Z,67.05
2023-06-17T05:43:03.869Z,67.12
2023-06-17T05:44:06.339Z,66.58
2023-06-17T05:45:11.473Z,66.42
2023-06-17T05:46:14.856Z,66.13
2023-06-17T05:47:18.572Z,66.02
2023-06-17T05:49:25.000Z,65.48
2023-06-17T05:50:27.663Z,65.60
2023-06-17T05:51:31.371Z,65.69
2023-06-17T05:52:35.762Z,65.27
2023-06-17T05:53:39.791Z,65.47
2023-06-17T05:54:42.312Z,65.81
2023-06-17T05:55:46.161Z,66.07
2023-06-17T05:56:49.239Z,66.27
2023-06-17T05:57:53.589Z,66.41
2023-06-17T05:58:56.770Z,66.22
2023-06-17T06:00:00.635Z,66.25
2023-06-17T06:01:03.517Z,66.40
2023-06-17T06:02:07.969Z,66.42
2023-06-17T06:03:10.428Z,66.18
2023-06-17T06:04:18.479Z,65.88
2023-06-17T06:05:21.777Z,66.06
2023-06-17T06:06:28.090Z,65.94
2023-06-17T06:07:30.896Z,65.62
2023-06-17T06:08:36.553Z,65.63
2023-06-17T06:09:39.233Z,65.22
2023-06-17T06:10:43.398Z,65.67
2023-06-17T06:11:46.867Z,65.25
2023-06-17T06:12:51.933Z,65.32
2023-06-17T06:13:54.551Z,65.36
2023-06-17T06:14:58.992Z,65.79
2023-06-17T06:16:01.543Z,65.64
2023-06-17T06:17:06.034Z,66.02
2023-06-17T06:18:08.525Z,66.47
2023-06-17T06:19:12.524Z,66.34
2023-06-17T06:20:15.934Z,66.69
2023-06-17T06:21:19.631Z,66.43
2023-06-17T06:22:23.227Z,66.59
2023-06-17T06:23:27.397Z,67.11
2023-06-17T06:24:31.453Z,67.24
2023-06-17T06:25:36.805Z,67.51
2023-06-17T06:26:39.217Z,67.43
2023-06-17T06:27:44.144Z,67.62
2023-06-17T06:28:46.984Z,68.56
2023-06-17T06:29:50.896Z,68.80
2023-06-17T06:30:53.448Z,69.74
2023-06-17T06:31:57.247Z,70.43
2023-06-17T06:33:00.122Z,70.83
2023-06-17T06:34:04.052Z,70.91
2023-06-17T06:35:08.015Z,71.07
2023-06-17T06:36:12.536Z,71.73
2023-06-17T06:37:15.228Z,71.50
2023-06-17T06:38:19.094Z,71.24
2023-06-17T06:39:21.555Z,71.26
2023-06-17T06:40:26.832Z,71.62
2023-06-17T06:41:30.151Z,71.53
2023-06-17T06:42:34.563Z,71.21
2023-06-17T06:43:37.470Z,71.12
2023-06-17T06:44:41.278Z,70.77
2023-06-17T06:45:44.273Z,70.65
2023-06-17T06:46:48.304Z,70.74
2023-06-17T06:47:50.817Z,70.71
2023-06-17T06:48:54.918Z,70.16
2023-06-17T06:49:57.675Z,70.09
2023-06-17T06:51:02.769Z,70.22
2023-06-17T06:52:06.098Z,70.22
2023-06-17T06:53:10.206Z,69.96
2023-06-17T06:54:13.013Z,69.91
2023-06-17T06:55:17.122Z,69.57
2023-06-17T06:56:21.290Z,69.23
2023-06-17T06:57:24.871Z,69.22
2023-06-17T06:58:27.364Z,69.19
2023-06-17T06:59:30.988Z,69.17
2023-06-17T07:00:33.712Z,68.68
2023-06-17T07:01:37.765Z,68.04
2023-06-17T07:02:40.736Z,68.70
2023-06-17T07:03:44.394Z,68.19
2023-06-17T07:04:47.334Z,68.82
2023-06-17T07:05:51.472Z,68.71
2023-06-17T07:06:54.456Z,68.48
2023-06-17T07:07:58.641Z,68.77
2023-06-17T07:09:01.574Z,68.73
2023-06-17T07:10:06.200Z,68.35
2023-06-17T07:11:08.737Z,68.79
2023-06-17T07:12:14.355Z,68.04
2023-06-17T07:13:18.848Z,67.61
2023-06-17T07:14:22.694Z,67.62
2023-06-17T07:15:25.208Z,67.36
2023-06-17T07:16:28.748Z,67.03
2023-06-17T07:17:31.644Z,66.88
2023-06-17T07:18:35.220Z,66.77
2023-06-17T07:19:37.962Z,67.41
2023-06-17T07:20:41.914Z,67.92
2023-06-17T07:21:44.380Z,68.39
2023-06-17T07:22:48.066Z,68.47
2023-06-17T07:23:52.123Z,68.08
2023-06-17T07:24:55.983Z,67.93
2023-06-17T07:25:58.817Z,68.18
2023-06-17T07:27:02.564Z,68.26
2023-06-17T07:28:08.655Z,68.35
2023-06-17T07:29:12.249Z,68.90
2023-06-17T07:30:15.156Z,67.92
2023-06-17T07:31:18.914Z,68.30
2023-06-17T07:32:22.088Z,68.20
2023-06-17T07:33:26.002Z,68.74
2023-06-17T07:34:28.703Z,68.68
2023-06-17T07:35:33.107Z,68.24
2023-06-17T07:36:35.960Z,68.73
2023-06-17T07:37:39.787Z,68.41
2023-06-17T07:38:42.955Z,68.27
2023-06-17T07:39:48.456Z,68.44
2023-06-17T07:40:52.458Z,69.08
2023-06-17T07:41:55.237Z,69.72
2023-06-17T07:42:59.303Z,69.26
2023-06-17T07:44:03.399Z,69.32
2023-06-17T07:45:08.373Z,69.69
2023-06-17T07:46:12.216Z,70.02
2023-06-17T07:47:14.823Z,70.04
2023-06-17T07:48:18.924Z,70.08
2023-06-17T07:49:21.433Z,69.98
2023-06-17T07:50:25.418Z,69.88
2023-06-17T07:51:28.398Z,69.24
2023-06-17T07:52:33.081Z,69.08
2023-06-17T07:53:36.479Z,68.46
2023-06-17T07:54:41.344Z,68.83
2023-06-17T07:55:45.427Z,68.73
2023-06-17T07:56:48.063Z,68.90
2023-06-17T07:57:51.959Z,69.28
2023-06-17T07:58:54.541Z,69.44
2023-06-17T07:59:59.827Z,68.71
2023-06-17T08:01:02.982Z,67.65
2023-06-17T08:02:09.804Z,67.14
2023-06-17T08:03:15.733Z,67.50
2023-06-17T08:04:18.395Z,68.08
2023-06-17T08:05:22.322Z,67.25
2023-06-17T08:06:25.271Z,66.66
2023-06-17T08:07:28.787Z,66.01
2023-06-17T08:08:32.021Z,66.44
2023-06-17T08:09:36.027Z,66.27
2023-06-17T08:10:40.594Z,66.33
2023-06-17T08:11:44.403Z,66.85
2023-06-17T08:12:48.383Z,66.20
2023-06-17T08:13:52.172Z,65.82
2023-06-17T08:14:54.727Z,65.90
2023-06-17T08:16:00.008Z,65.83
2023-06-17T08:17:02.899Z,65.93
2023-06-17T08:18:07.146Z,66.18
2023-06-17T08:19:09.990Z,66.12
2023-06-17T08:20:15.360Z,65.58
2023-06-17T08:21:18.761Z,65.54
2023-06-17T08:22:23.326Z,65.83
2023-06-17T08:23:25.922Z,65.78
2023-06-17T08:24:29.810Z,66.05
2023-06-17T08:25:33.592Z,65.93
2023-06-17T08:26:37.173Z,65.84
2023-06-17T08:27:40.240Z,66.00
2023-06-17T08:28:46.582Z,66.15
2023-06-17T08:29:49.128Z,65.92
2023-06-17T08:30:53.457Z,66.11
2023-06-17T08:31:57.424Z,66.64
2023-06-17T08:33:01.257Z,66.46
2023-06-17T08:34:04.026Z,66.95
2023-06-17T08:35:08.731Z,67.33
2023-06-17T08:36:11.454Z,67.47
2023-06-17T08:37:16.683Z,67.86
2023-06-17T08:38:19.296Z,67.71
2023-06-17T08:39:23.150Z,67.43
2023-06-17T08:40:29.734Z,67.38
2023-06-17T08:41:37.615Z,66.97
2023-06-17T08:42:41.761Z,67.34
2023-06-17T08:43:47.047Z,67.52
2023-06-17T08:44:51.674Z,68.17
2023-06-17T08:45:56.340Z,68.04
2023-06-17T08:47:03.974Z,68.14
2023-06-17T08:48:08.133Z,68.38
2023-06-17T08:49:14.486Z,68.67
2023-06-17T08:50:20.022Z,69.38
2023-06-17T08:51:23.662Z,69.34
2023-06-17T08:52:28.911Z,69.17
2023-06-17T08:53:31.454Z,69.91
2023-06-17T08:54:41.691Z,69.82
2023-06-17T08:55:44.395Z,69.30
2023-06-17T08:56:49.225Z,69.62
2023-06-17T08:57:52.514Z,69.93
2023-06-17T08:58:57.002Z,70.00
2023-06-17T08:59:59.951Z,69.90
2023-06-17T09:01:04.171Z,70.03
2023-06-17T09:02:11.783Z,70.01
2023-06-17T09:03:20.606Z,69.68
2023-06-17T09:04:23.882Z,70.04
2023-06-17T09:05:27.475Z,70.82
2023-06-17T09:06:30.853Z,71.12
2023-06-17T09:07:35.659Z,71.64
2023-06-17T09:08:38.850Z,71.22
2023-06-17T09:09:49.102Z,71.67
2023-06-17T09:10:52.101Z,71.29
2023-06-17T09:11:55.654Z,70.65
2023-06-17T09:13:00.187Z,69.41
2023-06-17T09:14:04.621Z,70.19
2023-06-17T09:15:08.880Z,70.33
2023-06-17T09:16:12.978Z,70.46
2023-06-17T09:17:31.778Z,70.35
2023-06-17T09:18:34.595Z,70.36
2023-06-17T09:19:41.719Z,70.67
2023-06-17T09:20:52.899Z,69.87
2023-06-17T09:21:57.306Z,69.38
2023-06-17T09:23:00.321Z,69.62
2023-06-17T09:24:06.117Z,70.38
2023-06-17T09:25:14.180Z,69.92
2023-06-17T09:26:17.881Z,69.91
2023-06-17T09:27:22.139Z,69.78
2023-06-17T09:28:26.832Z,69.67
2023-06-17T09:29:30.766Z,69.42
2023-06-17T09:30:43.845Z,69.21
2023-06-17T09:31:50.237Z,69.40
2023-06-17T09:32:55.293Z,69.18
2023-06-17T09:33:58.786Z,68.83
2023-06-17T09:35:02.695Z,68.54
2023-06-17T09:36:06.341Z,68.68
2023-06-17T09:37:14.258Z,69.24
2023-06-17T09:38:18.740Z,69.50
2023-06-17T09:39:31.032Z,70.03
2023-06-17T09:40:34.529Z,70.33
2023-06-17T09:41:39.167Z,70.86
2023-06-17T09:42:44.094Z,70.59
2023-06-17T09:43:52.573Z,70.99
2023-06-17T09:44:55.697Z,72.14
2023-06-17T09:46:02.447Z,72.50
2023-06-17T09:47:09.225Z,72.80
2023-06-17T09:48:21.179Z,72.40
2023-06-17T09:49:26.405Z,72.56
2023-06-17T09:50:29.276Z,71.69
2023-06-17T09:51:39.525Z,72.80
2023-06-17T09:52:43.104Z,72.25
2023-06-17T09:53:48.898Z,71.80
2023-06-17T09:54:52.744Z,71.67
2023-06-17T09:55:58.343Z,71.64
2023-06-17T09:57:02.951Z,72.51
2023-06-17T09:58:08.282Z,71.58
2023-06-17T09:59:11.610Z,71.11
2023-06-17T10:00:16.228Z,71.29
2023-06-17T10:01:19.054Z,70.34
2023-06-17T10:02:23.146Z,70.88
2023-06-17T10:03:27.374Z,70.92
2023-06-17T10:04:31.566Z,70.70
2023-06-17T10:05:34.170Z,68.92
2023-06-17T10:06:40.181Z,68.84
2023-06-17T10:07:45.154Z,68.70
2023-06-17T10:08:51.534Z,69.55
2023-06-17T10:09:54.853Z,69.89
2023-06-17T10:11:01.653Z,69.89
2023-06-17T10:12:07.434Z,70.21
2023-06-17T10:13:11.480Z,69.89
2023-06-17T10:14:20.110Z,70.07
2023-06-17T10:15:25.036Z,70.39
2023-06-17T10:16:32.261Z,70.83
2023-06-17T10:17:36.831Z,71.23
2023-06-17T10:18:44.621Z,71.53
2023-06-17T10:19:49.203Z,72.33
2023-06-17T10:20:54.352Z,72.83
2023-06-17T10:21:59.012Z,73.40
2023-06-17T10:23:04.434Z,73.02
2023-06-17T10:24:08.982Z,72.51
2023-06-17T10:25:18.098Z,72.16
2023-06-17T10:26:22.881Z,73.03
2023-06-17T10:27:27.093Z,73.79
2023-06-17T10:28:45.126Z,74.09
2023-06-17T10:29:51.184Z,73.82
2023-06-17T10:30:53.914Z,73.83
2023-06-17T10:31:57.626Z,72.72
2023-06-17T10:33:03.154Z,72.93
2023-06-17T10:34:10.694Z,72.66
2023-06-17T10:35:14.006Z,72.84
2023-06-17T10:36:17.910Z,73.02
2023-06-17T10:37:28.250Z,73.24
2023-06-17T10:38:34.737Z,73.71
2023-06-17T10:39:37.237Z,73.93
2023-06-17T10:40:52.180Z,73.45
2023-06-17T10:42:00.938Z,73.74
2023-06-17T10:43:21.948Z,72.94
2023-06-17T10:44:42.647Z,73.68
2023-06-17T10:45:54.688Z,74.47
2023-06-17T10:46:58.051Z,74.10
2023-06-17T10:48:16.559Z,74.19
2023-06-17T10:49:21.492Z,74.01
2023-06-17T10:50:26.187Z,73.42
2023-06-17T10:52:37.298Z,73.16
2023-06-17T10:53:49.089Z,72.13
2023-06-17T10:54:53.812Z,72.00
2023-06-17T10:55:58.768Z,71.70
2023-06-17T10:57:02.426Z,71.28
2023-06-17T10:58:06.438Z,70.67
2023-06-17T10:59:09.474Z,68.74
2023-06-17T11:00:14.208Z,68.38
2023-06-17T11:01:16.968Z,68.73
2023-06-17T11:02:23.974Z,69.87
2023-06-17T11:03:26.875Z,69.81
2023-06-17T11:04:33.580Z,69.29
2023-06-17T11:05:37.161Z,69.43
2023-06-17T11:06:40.639Z,69.21
2023-06-17T11:07:43.303Z,68.65
2023-06-17T11:08:46.951Z,68.60
2023-06-17T11:09:50.305Z,67.94
2023-06-17T11:10:54.520Z,67.03
2023-06-17T11:11:58.261Z,67.49
2023-06-17T11:13:01.798Z,67.21
2023-06-17T11:14:04.390Z,67.82
2023-06-17T11:15:10.208Z,68.09
2023-06-17T11:16:12.990Z,68.42
2023-06-17T11:17:16.770Z,68.28
2023-06-17T11:18:19.559Z,67.49
2023-06-17T11:19:23.410Z,68.13
2023-06-17T11:20:27.798Z,68.21
2023-06-17T11:21:31.640Z,67.89
2023-06-17T11:22:38.643Z,68.39
2023-06-17T11:23:45.137Z,67.60
2023-06-17T11:24:47.816Z,67.07
2023-06-17T11:25:55.407Z,66.07
2023-06-17T11:26:58.401Z,65.38
2023-06-17T11:28:02.061Z,65.93
2023-06-17T11:29:07.130Z,65.59
2023-06-17T11:30:10.541Z,66.16
2023-06-17T11:31:15.917Z,65.68
2023-06-17T11:32:22.020Z,65.57
2023-06-17T11:33:26.467Z,66.61
2023-06-17T11:34:33.520Z,65.70
2023-06-17T11:35:39.942Z,66.40
2023-06-17T11:36:43.098Z,66.10
2023-06-17T11:37:49.656Z,67.07
2023-06-17T11:38:53.658Z,66.44
2023-06-17T11:39:59.750Z,66.04
2023-06-17T11:41:03.882Z,66.13
2023-06-17T11:42:08.434Z,65.36
2023-06-17T11:43:12.420Z,65.76
2023-06-17T11:44:15.333Z,65.45
2023-06-17T11:45:19.528Z,65.69
2023-06-17T11:46:23.042Z,65.56
2023-06-17T11:47:35.438Z,65.72
2023-06-17T11:48:38.036Z,65.87
2023-06-17T11:49:44.312Z,66.18
2023-06-17T11:50:51.315Z,66.13
2023-06-17T11:51:55.253Z,65.63
2023-06-17T11:52:57.986Z,65.47
2023-06-17T11:54:07.287Z,66.44
2023-06-17T11:55:16.056Z,66.82
2023-06-17T11:56:21.896Z,67.01
2023-06-17T11:57:26.745Z,67.07
2023-06-17T11:58:30.330Z,66.06
2023-06-17T11:59:33.275Z,66.53
2023-06-17T12:00:38.323Z,66.26
2023-06-17T12:01:41.725Z,65.70
2023-06-17T12:02:45.902Z,66.42
2023-06-17T12:03:49.943Z,65.87
2023-06-17T12:04:52.834Z,65.01
2023-06-17T12:05:58.866Z,64.67
2023-06-17T12:07:01.375Z,63.82
2023-06-17T12:08:05.503Z,63.47
2023-06-17T12:09:09.648Z,63.82
2023-06-17T12:10:14.230Z,64.03
2023-06-17T12:11:27.255Z,63.23
2023-06-17T12:12:33.678Z,62.83
2023-06-17T12:13:40.587Z,63.00
2023-06-17T12:14:44.320Z,62.70
2023-06-17T12:15:47.259Z,63.37
2023-06-17T12:16:54.384Z,63.68
2023-06-17T12:17:58.467Z,64.07
2023-06-17T12:19:03.174Z,63.36
2023-06-17T12:20:07.214Z,63.33
2023-06-17T12:21:15.260Z,63.27
2023-06-17T12:22:17.878Z,63.54
2023-06-17T12:23:21.733Z,63.20
2023-06-17T12:24:25.050Z,64.06
2023-06-17T12:25:30.219Z,63.97
2023-06-17T12:26:34.096Z,63.96
2023-06-17T12:27:37.934Z,63.96
2023-06-17T12:28:41.469Z,63.42
2023-06-17T12:29:47.008Z,63.23
2023-06-17T12:30:49.656Z,63.56
2023-06-17T12:31:54.911Z,63.00
2023-06-17T12:32:57.649Z,63.59
2023-06-17T12:34:01.293Z,63.74
2023-06-17T12:35:06.482Z,63.54
2023-06-17T12:36:11.623Z,64.34
2023-06-17T12:37:18.221Z,64.29
2023-06-17T12:38:22.874Z,64.71
2023-06-17T12:39:25.808Z,64.10
2023-06-17T12:40:30.220Z,63.88
2023-06-17T12:41:33.051Z,64.62
2023-06-17T12:42:38.242Z,64.36
2023-06-17T12:43:42.070Z,64.25
2023-06-17T12:44:47.721Z,64.16
2023-06-17T12:45:50.330Z,63.82
2023-06-17T12:46:54.772Z,64.17
2023-06-17T12:47:59.290Z,63.25
2023-06-17T12:49:03.066Z,63.63
2023-06-17T12:50:06.365Z,63.85
2023-06-17T12:51:11.019Z,64.46
2023-06-17T12:52:15.913Z,65.25
2023-06-17T12:53:19.787Z,65.05
2023-06-17T12:54:22.333Z,65.56
2023-06-17T12:55:26.131Z,66.64
2023-06-17T12:56:29.171Z,67.11
2023-06-17T12:57:33.161Z,67.04
2023-06-17T12:58:35.734Z,67.80
2023-06-17T12:59:39.568Z,67.57
2023-06-17T13:00:42.862Z,67.71
2023-06-17T13:01:48.750Z,66.89
2023-06-17T13:02:52.077Z,67.04
2023-06-17T13:03:56.781Z,66.15
2023-06-17T13:04:59.203Z,66.09
2023-06-17T13:06:03.521Z,66.62
2023-06-17T13:07:06.859Z,66.91
2023-06-17T13:08:12.211Z,67.13
2023-06-17T13:09:15.405Z,67.37
2023-06-17T13:10:19.241Z,67.63
2023-06-17T13:11:22.118Z,68.10
2023-06-17T13:12:26.036Z,67.80
2023-06-17T13:13:29.079Z,67.97
2023-06-17T13:14:32.715Z,67.81
2023-06-17T13:15:35.174Z,68.11
2023-06-17T13:16:39.716Z,68.50
2023-06-17T13:17:43.651Z,67.73
2023-06-17T13:18:47.373Z,67.38
2023-06-17T13:19:49.964Z,68.11
2023-06-17T13:20:54.321Z,67.48
2023-06-17T13:21:58.848Z,68.21
2023-06-17T13:23:03.455Z,67.86
2023-06-17T13:24:07.853Z,68.40
2023-06-17T13:25:11.973Z,68.07
2023-06-17T13:26:15.838Z,68.28
2023-06-17T13:27:20.150Z,69.28
2023-06-17T13:28:23.169Z,69.42
2023-06-17T13:29:27.955Z,70.02
2023-06-17T13:30:30.410Z,70.30
2023-06-17T13:31:34.644Z,69.81
2023-06-17T13:32:37.746Z,70.53
2023-06-17T13:33:41.711Z,70.68
2023-06-17T13:34:44.568Z,70.58
2023-06-17T13:35:48.100Z,70.51
2023-06-17T13:36:50.668Z,69.13
2023-06-17T13:37:56.367Z,69.61
2023-06-17T13:39:00.003Z,69.34
2023-06-17T13:40:06.281Z,70.20
2023-06-17T13:41:09.642Z,70.52
2023-06-17T13:42:15.078Z,70.22
2023-06-17T13:43:18.815Z,69.85
2023-06-17T13:44:24.254Z,69.91
2023-06-17T13:45:27.135Z,69.45
2023-06-17T13:46:32.021Z,69.63
2023-06-17T13:47:35.290Z,69.43
2023-06-17T13:48:39.846Z,70.10
2023-06-17T13:49:43.469Z,70.83
2023-06-17T13:50:48.167Z,70.46
2023-06-17T13:51:52.343Z,70.53
2023-06-17T13:52:56.215Z,70.18